createdAt,value
2023-03-26T00:01:32.607Z,96763.75
2023-03-26T00:03:58.997Z,96761.94
2023-03-26T00:06:25.448Z,96758.50
2023-03-26T00:08:51.963Z,96751.78
2023-03-26T00:11:18.340Z,96763.91
2023-03-26T00:13:44.721Z,96775.03
2023-03-26T00:16:11.174Z,96765.25
2023-03-26T00:18:37.588Z,96777.84
2023-03-26T00:21:04.036Z,96783.22
2023-03-26T00:23:39.556Z,96789.66
2023-03-26T00:26:05.996Z,96784.06
2023-03-26T00:28:32.380Z,96783.81
2023-03-26T00:31:01.203Z,96779.47
2023-03-26T00:33:27.652Z,96772.69
2023-03-26T00:35:54.324Z,96790.91
2023-03-26T00:38:20.958Z,96793.00
2023-03-26T00:40:47.339Z,96785.81
2023-03-26T00:43:13.714Z,96794.88
2023-03-26T00:45:40.082Z,96808.16
2023-03-26T00:48:08.061Z,96808.28
2023-03-26T00:50:34.583Z,96822.56
2023-03-26T00:53:00.973Z,96828.44
2023-03-26T00:55:27.389Z,96809.25
2023-03-26T00:57:53.717Z,96801.13
2023-03-26T01:00:20.130Z,96804.13
2023-03-26T01:02:46.542Z,96808.31
2023-03-26T01:05:13.010Z,96812.19
2023-03-26T01:07:39.431Z,96821.00
2023-03-26T01:10:05.780Z,96820.75
2023-03-26T01:12:32.124Z,96804.84
2023-03-26T01:14:58.526Z,96813.13
2023-03-26T01:17:24.989Z,96800.84
2023-03-26T01:19:51.496Z,96786.66
2023-03-26T01:22:17.869Z,96763.63
2023-03-26T01:24:44.206Z,96762.34
2023-03-26T01:27:10.520Z,96752.53
2023-03-26T01:29:36.860Z,96751.03
2023-03-26T01:32:03.224Z,96728.44
2023-03-26T01:34:31.675Z,96714.53
2023-03-26T01:36:58.089Z,96710.41
2023-03-26T01:39:24.491Z,96691.31
2023-03-26T01:41:50.855Z,96672.47
2023-03-26T01:44:18.311Z,96668.00
2023-03-26T01:46:44.831Z,96677.50
2023-03-26T01:49:11.300Z,96675.38
2023-03-26T01:51:37.713Z,96684.16
2023-03-26T01:54:04.115Z,96683.88
2023-03-26T01:56:30.637Z,96675.91
2023-03-26T01:58:57.020Z,96662.03
2023-03-26T02:01:23.487Z,96647.25
2023-03-26T02:03:49.968Z,96645.78
2023-03-26T02:06:16.374Z,96639.97
2023-03-26T02:08:42.737Z,96636.81
2023-03-26T02:11:09.822Z,96634.47
2023-03-26T02:13:36.252Z,96620.88
2023-03-26T02:16:02.705Z,96613.47
2023-03-26T02:18:29.076Z,96608.69
2023-03-26T02:20:58.177Z,96614.66
2023-03-26T02:23:26.944Z,96618.78
2023-03-26T02:25:53.552Z,96605.47
2023-03-26T02:28:20.013Z,96587.94
2023-03-26T02:30:46.392Z,96582.47
2023-03-26T02:33:14.761Z,96585.19
2023-03-26T02:35:41.336Z,96596.94
2023-03-26T02:38:07.782Z,96578.44
2023-03-26T02:40:34.198Z,96586.19
2023-03-26T02:43:00.575Z,96583.03
2023-03-26T02:45:27.140Z,96567.59
2023-03-26T02:47:53.614Z,96562.34
2023-03-26T02:50:20.075Z,96573.94
2023-03-26T02:52:46.449Z,96579.81
2023-03-26T02:55:12.836Z,96571.91
2023-03-26T02:57:39.154Z,96563.09
2023-03-26T03:00:05.533Z,96555.03
2023-03-26T03:02:31.926Z,96537.25
2023-03-26T03:04:58.752Z,96533.44
2023-03-26T03:07:25.121Z,96526.38
2023-03-26T03:09:51.485Z,96516.13
2023-03-26T03:12:17.862Z,96524.19
2023-03-26T03:14:44.228Z,96532.41
2023-03-26T03:17:12.993Z,96531.72
2023-03-26T03:19:39.422Z,96538.50
2023-03-26T03:22:05.772Z,96526.00
2023-03-26T03:24:32.132Z,96528.47
2023-03-26T03:26:58.561Z,96514.78
2023-03-26T03:29:24.926Z,96520.53
2023-03-26T03:31:53.070Z,96513.88
2023-03-26T03:34:19.428Z,96517.53
2023-03-26T03:36:45.795Z,96512.94
2023-03-26T03:39:14.653Z,96480.59
2023-03-26T03:41:43.758Z,96466.91
2023-03-26T03:44:10.156Z,96462.94
2023-03-26T03:46:36.716Z,96455.34
2023-03-26T03:49:03.185Z,96461.75
2023-03-26T03:51:29.669Z,96458.91
2023-03-26T03:53:56.061Z,96466.91
2023-03-26T03:56:22.458Z,96480.25
2023-03-26T03:58:48.851Z,96495.88
2023-03-26T04:01:15.347Z,96491.91
2023-03-26T04:03:41.943Z,96491.72
2023-03-26T04:06:08.636Z,96483.63
2023-03-26T04:08:35.037Z,96463.88
2023-03-26T04:11:01.478Z,96462.56
2023-03-26T04:13:27.887Z,96465.03
2023-03-26T04:15:54.493Z,96461.91
2023-03-26T04:18:21.173Z,96442.28
2023-03-26T04:20:47.690Z,96448.94
2023-03-26T04:23:14.073Z,96439.25
2023-03-26T04:25:40.469Z,96440.91
2023-03-26T04:28:06.836Z,96437.84
2023-03-26T04:30:33.209Z,96434.50
2023-03-26T04:32:59.672Z,96441.28
2023-03-26T04:35:26.112Z,96444.00
2023-03-26T04:37:52.518Z,96437.28
2023-03-26T04:40:18.899Z,96447.34
2023-03-26T04:42:45.286Z,96462.84
2023-03-26T04:45:11.669Z,96468.00
2023-03-26T04:47:38.079Z,96471.41
2023-03-26T04:50:04.483Z,96470.00
2023-03-26T04:52:30.883Z,96469.75
2023-03-26T04:54:57.270Z,96467.88
2023-03-26T04:57:23.645Z,96466.00
2023-03-26T04:59:50.085Z,96461.19
2023-03-26T05:02:16.482Z,96439.88
2023-03-26T05:04:42.896Z,96422.06
2023-03-26T05:07:09.336Z,96405.66
2023-03-26T05:09:35.702Z,96399.09
2023-03-26T05:12:02.080Z,96404.16
2023-03-26T05:14:28.434Z,96419.94
2023-03-26T05:16:57.983Z,96443.75
2023-03-26T05:19:24.384Z,96442.09
2023-03-26T05:21:50.994Z,96454.28
2023-03-26T05:24:18.036Z,96460.81
2023-03-26T05:26:44.380Z,96467.06
2023-03-26T05:29:10.788Z,96464.78
2023-03-26T05:31:37.230Z,96468.91
2023-03-26T05:34:03.589Z,96480.25
2023-03-26T05:36:29.982Z,96485.88
2023-03-26T05:38:56.442Z,96458.94
2023-03-26T05:41:23.224Z,96441.16
2023-03-26T05:43:49.583Z,96416.53
2023-03-26T05:46:15.985Z,96394.88
2023-03-26T05:48:42.399Z,96392.41
2023-03-26T05:51:08.847Z,96393.47
2023-03-26T05:53:35.220Z,96399.09
2023-03-26T05:56:01.558Z,96383.84
2023-03-26T05:58:27.937Z,96378.22
2023-03-26T06:00:54.616Z,96373.28
2023-03-26T06:03:21.206Z,96367.44
2023-03-26T06:05:47.629Z,96358.66
2023-03-26T06:08:13.981Z,96349.53
2023-03-26T06:10:40.390Z,96355.50
2023-03-26T06:15:47.085Z,96361.13
2023-03-26T06:18:13.586Z,96357.44
2023-03-26T06:20:40.009Z,96358.25
2023-03-26T06:23:08.892Z,96383.69
2023-03-26T06:25:35.286Z,96404.97
2023-03-26T06:28:03.047Z,96431.78
2023-03-26T06:30:29.434Z,96438.66
2023-03-26T06:32:55.934Z,96448.88
2023-03-26T06:35:22.311Z,96485.25
2023-03-26T06:37:48.793Z,96508.25
2023-03-26T06:40:15.957Z,96491.78
2023-03-26T06:43:08.227Z,96487.59
2023-03-26T06:45:28.948Z,96509.94
2023-03-26T06:47:56.819Z,96494.63
2023-03-26T06:50:23.348Z,96466.53
2023-03-26T06:52:49.797Z,96439.31
2023-03-26T06:55:16.294Z,96432.66
2023-03-26T06:57:42.668Z,96440.28
2023-03-26T07:00:09.065Z,96429.06
2023-03-26T07:02:35.441Z,96444.06
2023-03-26T07:05:01.820Z,96432.03
2023-03-26T07:07:28.170Z,96400.31
2023-03-26T07:09:54.582Z,96381.94
2023-03-26T07:12:21.019Z,96381.06
2023-03-26T07:14:47.381Z,96368.44
2023-03-26T07:17:13.801Z,96372.47
2023-03-26T07:19:40.234Z,96366.41
2023-03-26T07:22:06.670Z,96365.16
2023-03-26T07:24:33.053Z,96362.59
2023-03-26T07:26:59.433Z,96376.22
2023-03-26T07:29:25.852Z,96376.81
2023-03-26T07:32:00.046Z,96375.44
2023-03-26T07:34:26.532Z,96401.16
2023-03-26T07:36:52.853Z,96425.13
2023-03-26T07:39:19.262Z,96416.50
2023-03-26T07:41:45.633Z,96437.38
2023-03-26T07:44:12.053Z,96451.75
2023-03-26T07:46:38.605Z,96435.19
2023-03-26T07:49:04.999Z,96437.88
2023-03-26T07:51:31.394Z,96461.50
2023-03-26T07:53:57.810Z,96415.78
2023-03-26T07:56:24.200Z,96379.34
2023-03-26T07:58:50.641Z,96384.47
2023-03-26T08:01:17.066Z,96410.25
2023-03-26T08:03:43.521Z,96399.00
2023-03-26T08:06:10.047Z,96421.47
2023-03-26T08:08:36.394Z,96399.00
2023-03-26T08:11:02.800Z,96411.38
2023-03-26T08:13:29.145Z,96410.59
2023-03-26T08:15:55.567Z,96418.41
2023-03-26T08:18:21.962Z,96416.56
2023-03-26T08:20:48.381Z,96419.47
2023-03-26T08:23:14.993Z,96436.56
2023-03-26T08:25:41.448Z,96444.31
2023-03-26T08:28:07.873Z,96415.88
2023-03-26T08:30:34.238Z,96387.59
2023-03-26T08:33:00.786Z,96387.38
2023-03-26T08:35:27.226Z,96398.50
2023-03-26T08:37:53.603Z,96431.66
2023-03-26T08:40:19.973Z,96455.28
2023-03-26T08:42:46.359Z,96454.75
2023-03-26T08:45:12.743Z,96425.41
2023-03-26T08:47:39.191Z,96428.53
2023-03-26T08:50:05.609Z,96437.00
2023-03-26T08:52:32.053Z,96446.56
2023-03-26T08:54:58.418Z,96456.34
2023-03-26T08:57:24.795Z,96447.41
2023-03-26T08:59:51.176Z,96454.97
2023-03-26T09:02:17.613Z,96444.53
2023-03-26T09:04:43.984Z,96428.38
2023-03-26T09:07:10.345Z,96430.75
2023-03-26T09:09:36.666Z,96438.50
2023-03-26T09:12:03.058Z,96431.63
2023-03-26T09:14:29.472Z,96441.56
2023-03-26T09:16:55.938Z,96442.31
2023-03-26T09:19:22.350Z,96455.88
2023-03-26T09:21:48.710Z,96451.34
2023-03-26T09:24:15.163Z,96458.34
2023-03-26T09:26:41.617Z,96451.97
2023-03-26T09:29:08.010Z,96426.09
2023-03-26T09:31:34.440Z,96410.91
2023-03-26T09:34:00.896Z,96400.28
2023-03-26T09:36:27.284Z,96390.47
2023-03-26T09:38:53.704Z,96388.59
2023-03-26T09:41:20.078Z,96381.78
2023-03-26T09:43:46.529Z,96370.13
2023-03-26T09:46:12.985Z,96347.41
2023-03-26T09:48:39.437Z,96339.47
2023-03-26T09:51:05.872Z,96335.50
2023-03-26T09:53:32.270Z,96323.31
2023-03-26T09:55:58.637Z,96323.31
2023-03-26T09:58:24.989Z,96339.84
2023-03-26T10:00:51.617Z,96328.03
2023-03-26T10:03:18.082Z,96360.16
2023-03-26T10:05:44.483Z,96363.16
2023-03-26T10:08:10.975Z,96384.13
2023-03-26T10:10:40.037Z,96383.81
2023-03-26T10:13:14.551Z,96340.19
2023-03-26T10:15:41.606Z,96401.09
2023-03-26T10:18:26.980Z,96419.03
2023-03-26T10:20:54.783Z,96431.44
2023-03-26T10:23:21.256Z,96420.34
2023-03-26T10:25:47.601Z,96399.31
2023-03-26T10:28:14.047Z,96368.78
2023-03-26T10:30:40.552Z,96404.75
2023-03-26T10:33:06.969Z,96439.78
2023-03-26T10:35:33.376Z,96422.63
2023-03-26T10:37:59.761Z,96415.09
2023-03-26T10:40:27.888Z,96409.59
2023-03-26T10:42:54.364Z,96422.69
2023-03-26T10:45:20.762Z,96446.13
2023-03-26T10:47:47.178Z,96456.78
2023-03-26T10:50:14.563Z,96457.13
2023-03-26T10:52:49.114Z,96462.09
2023-03-26T10:55:15.480Z,96450.13
2023-03-26T10:57:41.827Z,96445.03
2023-03-26T11:00:08.278Z,96432.53
2023-03-26T11:02:34.747Z,96426.94
2023-03-26T11:05:01.191Z,96422.75
2023-03-26T11:07:27.666Z,96414.53
2023-03-26T11:09:54.057Z,96420.78
2023-03-26T11:12:26.626Z,96407.53
2023-03-26T11:14:54.931Z,96398.59
2023-03-26T11:17:40.153Z,96393.00
2023-03-26T11:20:07.807Z,96392.75
2023-03-26T11:22:34.149Z,96366.47
2023-03-26T11:25:00.523Z,96351.25
2023-03-26T11:27:26.919Z,96340.38
2023-03-26T11:29:53.279Z,96317.78
2023-03-26T11:32:19.680Z,96323.31
2023-03-26T11:34:46.278Z,96335.94
2023-03-26T11:37:12.682Z,96354.97
2023-03-26T11:39:39.084Z,96363.31
2023-03-26T11:42:05.515Z,96360.16
2023-03-26T11:44:31.904Z,96353.28
2023-03-26T11:46:58.341Z,96346.28
2023-03-26T11:49:24.758Z,96336.66
2023-03-26T11:51:51.196Z,96335.28
2023-03-26T11:54:17.555Z,96336.78
2023-03-26T11:57:05.527Z,96312.56
2023-03-26T11:59:30.259Z,96296.72
2023-03-26T12:01:56.772Z,96278.81
2023-03-26T12:04:23.394Z,96263.03
2023-03-26T12:06:49.821Z,96238.72
2023-03-26T12:09:16.212Z,96240.75
2023-03-26T12:11:42.565Z,96235.41
2023-03-26T12:14:11.141Z,96235.63
2023-03-26T12:16:37.545Z,96216.78
2023-03-26T12:19:03.976Z,96225.28
2023-03-26T12:21:31.392Z,96227.84
2023-03-26T12:23:57.769Z,96231.91
2023-03-26T12:26:24.214Z,96228.78
2023-03-26T12:28:50.633Z,96222.00
2023-03-26T12:31:17.095Z,96223.84
2023-03-26T12:33:43.481Z,96230.22
2023-03-26T12:36:09.858Z,96203.69
2023-03-26T12:38:39.062Z,96191.00
2023-03-26T12:41:05.905Z,96190.25
2023-03-26T12:44:49.800Z,96190.59
2023-03-26T12:47:59.336Z,96169.94
2023-03-26T12:49:05.346Z,96161.13
2023-03-26T12:51:31.806Z,96154.88
2023-03-26T12:53:58.386Z,96134.63
2023-03-26T12:56:24.822Z,96128.38
2023-03-26T12:58:51.417Z,96125.00
2023-03-26T13:01:17.868Z,96108.25
2023-03-26T13:03:44.247Z,96103.69
2023-03-26T13:06:10.716Z,96107.56
2023-03-26T13:08:37.148Z,96119.88
2023-03-26T13:11:03.580Z,96160.91
2023-03-26T13:13:29.944Z,96235.41
2023-03-26T13:15:56.386Z,96315.78
2023-03-26T13:18:22.778Z,96348.50
2023-03-26T13:20:49.174Z,96394.66
2023-03-26T13:23:15.628Z,96430.44
2023-03-26T13:25:42.121Z,96492.47
2023-03-26T13:28:11.241Z,96539.72
2023-03-26T13:33:28.227Z,96504.78
2023-03-26T13:36:00.661Z,96459.66
2023-03-26T13:38:33.212Z,96455.59
2023-03-26T13:40:59.804Z,96400.44
2023-03-26T13:43:26.260Z,96394.66
2023-03-26T13:45:52.738Z,96402.13
2023-03-26T13:48:19.216Z,96390.38
2023-03-26T13:50:45.590Z,96382.28
2023-03-26T13:53:11.984Z,96379.13
2023-03-26T13:55:38.442Z,96375.16
2023-03-26T13:58:04.901Z,96380.09
2023-03-26T14:00:31.344Z,96389.31
2023-03-26T14:02:57.844Z,96379.50
2023-03-26T14:05:25.363Z,96361.31
2023-03-26T14:07:51.694Z,96368.34
2023-03-26T14:10:18.110Z,96362.91
2023-03-26T14:12:44.549Z,96372.69
2023-03-26T14:15:10.961Z,96346.06
2023-03-26T14:17:37.359Z,96328.75
2023-03-26T14:20:03.840Z,96347.97
2023-03-26T14:22:30.302Z,96345.84
2023-03-26T14:24:56.714Z,96339.22
2023-03-26T14:27:23.027Z,96354.25
2023-03-26T14:29:56.697Z,96353.25
2023-03-26T14:32:24.238Z,96346.97
2023-03-26T14:34:51.108Z,96357.97
2023-03-26T14:37:27.386Z,96353.09
2023-03-26T14:39:54.491Z,96365.59
2023-03-26T14:42:20.880Z,96368.53
2023-03-26T14:44:47.809Z,96364.13
2023-03-26T14:47:15.882Z,96365.75
2023-03-26T14:49:42.367Z,96365.25
2023-03-26T14:52:08.767Z,96361.97
2023-03-26T14:54:35.170Z,96380.78
2023-03-26T14:57:01.601Z,96382.50
2023-03-26T14:59:28.080Z,96368.81
2023-03-26T15:01:54.483Z,96355.44
2023-03-26T15:04:20.990Z,96367.78
2023-03-26T15:07:10.297Z,96367.78
2023-03-26T15:09:34.609Z,96367.22
2023-03-26T15:12:12.298Z,96360.66
2023-03-26T15:14:39.743Z,96366.03
2023-03-26T15:17:06.119Z,96373.53
2023-03-26T15:19:32.433Z,96389.56
2023-03-26T15:21:58.865Z,96373.22
2023-03-26T15:24:25.297Z,96352.00
2023-03-26T15:26:51.698Z,96363.56
2023-03-26T15:29:18.127Z,96360.53
2023-03-26T15:31:44.516Z,96358.28
2023-03-26T15:34:10.975Z,96357.19
2023-03-26T15:36:37.368Z,96341.16
2023-03-26T15:39:03.804Z,96335.69
2023-03-26T15:41:30.235Z,96329.41
2023-03-26T15:44:23.993Z,96328.22
2023-03-26T15:46:43.220Z,96327.50
2023-03-26T15:49:09.602Z,96319.19
2023-03-26T15:51:46.872Z,96307.34
2023-03-26T15:54:14.151Z,96304.59
2023-03-26T15:56:40.625Z,96294.19
2023-03-26T15:59:07.002Z,96309.00
2023-03-26T16:01:33.388Z,96303.28
2023-03-26T16:03:59.847Z,96309.66
2023-03-26T16:06:26.299Z,96306.53
2023-03-26T16:08:52.699Z,96309.00
2023-03-26T16:11:19.115Z,96307.50
2023-03-26T16:16:28.921Z,96299.44
2023-03-26T16:18:55.356Z,96305.13
2023-03-26T16:21:31.503Z,96307.00
2023-03-26T16:23:59.000Z,96305.28
2023-03-26T16:26:25.436Z,96290.00
2023-03-26T16:28:51.953Z,96276.13
2023-03-26T16:31:37.064Z,96276.84
2023-03-26T16:34:04.771Z,96266.84
2023-03-26T16:36:31.170Z,96258.38
2023-03-26T16:38:57.557Z,96245.00
2023-03-26T16:41:23.964Z,96234.13
2023-03-26T16:43:50.391Z,96217.09
2023-03-26T16:46:16.773Z,96217.28
2023-03-26T16:48:43.184Z,96223.44
2023-03-26T16:51:09.540Z,96219.56
2023-03-26T16:53:36.039Z,96206.00
2023-03-26T16:56:02.463Z,96197.22
2023-03-26T16:58:28.889Z,96192.09
2023-03-26T17:00:55.518Z,96185.31
2023-03-26T17:03:22.239Z,96185.75
2023-03-26T17:05:48.755Z,96189.09
2023-03-26T17:08:15.245Z,96199.38
2023-03-26T17:10:41.640Z,96203.00
2023-03-26T17:13:08.031Z,96193.28
2023-03-26T17:15:34.421Z,96183.00
2023-03-26T17:18:01.014Z,96187.47
2023-03-26T17:20:27.496Z,96185.88
2023-03-26T17:22:53.847Z,96186.97
2023-03-26T17:25:20.288Z,96183.72
2023-03-26T17:27:49.160Z,96189.13
2023-03-26T17:30:15.732Z,96193.59
2023-03-26T17:32:42.182Z,96198.50
2023-03-26T17:35:08.790Z,96197.72
2023-03-26T17:37:37.342Z,96191.16
2023-03-26T17:40:03.773Z,96190.22
2023-03-26T17:42:30.193Z,96191.63
2023-03-26T17:44:56.594Z,96179.13
2023-03-26T17:47:22.955Z,96173.97
2023-03-26T17:49:49.366Z,96162.50
2023-03-26T17:52:15.767Z,96153.72
2023-03-26T17:54:42.209Z,96145.56
2023-03-26T17:57:11.177Z,96140.66
2023-03-26T17:59:39.298Z,96146.75
2023-03-26T18:02:08.190Z,96140.66
2023-03-26T18:04:34.633Z,96146.38
2023-03-26T18:07:01.225Z,96150.34
2023-03-26T18:09:29.607Z,96145.44
2023-03-26T18:11:56.119Z,96139.72
2023-03-26T18:14:25.274Z,96131.75
2023-03-26T18:16:51.839Z,96127.72
2023-03-26T18:19:18.271Z,96125.97
2023-03-26T18:21:44.767Z,96128.03
2023-03-26T18:24:11.259Z,96127.94
2023-03-26T18:26:37.691Z,96127.47
2023-03-26T18:29:04.868Z,96127.78
2023-03-26T18:31:31.257Z,96117.50
2023-03-26T18:33:57.726Z,96128.81
2023-03-26T18:36:24.093Z,96131.19
2023-03-26T18:38:50.444Z,96130.16
2023-03-26T18:41:20.323Z,96132.38
2023-03-26T18:43:56.763Z,96119.50
2023-03-26T18:46:23.414Z,96129.47
2023-03-26T18:51:43.219Z,96126.31
2023-03-26T18:54:16.986Z,96129.94
2023-03-26T18:56:43.589Z,96137.38
2023-03-26T18:59:10.059Z,96144.72
2023-03-26T19:01:36.556Z,96153.56
2023-03-26T19:04:03.088Z,96155.56
2023-03-26T19:06:29.505Z,96170.56
2023-03-26T19:08:55.971Z,96176.59
2023-03-26T19:11:22.407Z,96180.63
2023-03-26T19:13:48.823Z,96186.81
2023-03-26T19:16:15.276Z,96190.06
2023-03-26T19:18:43.949Z,96192.34
2023-03-26T19:21:10.698Z,96188.03
2023-03-26T19:23:37.136Z,96204.34
2023-03-26T19:26:03.508Z,96195.66
2023-03-26T19:28:29.895Z,96199.13
2023-03-26T19:30:56.460Z,96205.59
2023-03-26T19:33:23.099Z,96199.72
2023-03-26T19:35:49.725Z,96194.75
2023-03-26T19:38:16.154Z,96193.66
2023-03-26T19:40:42.596Z,96194.84
2023-03-26T19:43:09.004Z,96190.72
2023-03-26T19:45:35.382Z,96182.94
2023-03-26T19:50:48.381Z,96180.13
2023-03-26T19:51:18.797Z,96181.31
2023-03-26T19:53:17.078Z,96174.09
2023-03-26T19:55:43.866Z,96173.72
2023-03-26T19:58:10.346Z,96172.75
2023-03-26T20:00:36.720Z,96167.03
2023-03-26T20:03:03.179Z,96168.66
2023-03-26T20:05:29.624Z,96169.72
2023-03-26T20:07:56.016Z,96178.78
2023-03-26T20:10:22.456Z,96179.09
2023-03-26T20:12:48.893Z,96167.16
2023-03-26T20:15:19.361Z,96171.13
2023-03-26T20:17:46.224Z,96167.63
2023-03-26T20:20:12.647Z,96168.44
2023-03-26T20:22:39.086Z,96174.84
2023-03-26T20:25:05.492Z,96171.34
2023-03-26T20:27:32.006Z,96169.59
2023-03-26T20:29:58.378Z,96170.13
2023-03-26T20:32:27.003Z,96164.13
2023-03-26T20:34:53.563Z,96161.91
2023-03-26T20:37:19.972Z,96164.25
2023-03-26T20:39:46.367Z,96169.16
2023-03-26T20:42:14.649Z,96165.28
2023-03-26T20:44:42.244Z,96175.34
2023-03-26T20:47:08.690Z,96178.03
2023-03-26T20:49:35.096Z,96183.78
2023-03-26T20:52:02.741Z,96179.59
2023-03-26T20:54:29.130Z,96193.16
2023-03-26T20:56:55.490Z,96194.44
2023-03-26T20:59:22.264Z,96193.88
2023-03-26T21:01:49.162Z,96187.13
2023-03-26T21:04:15.622Z,96192.84
2023-03-26T21:06:41.978Z,96205.16
2023-03-26T21:09:08.389Z,96211.56
2023-03-26T21:11:34.835Z,96223.94
2023-03-26T21:14:04.268Z,96223.00
2023-03-26T21:16:30.661Z,96219.00
2023-03-26T21:18:57.053Z,96224.38
2023-03-26T21:21:23.374Z,96217.63
2023-03-26T21:23:49.779Z,96224.03
2023-03-26T21:26:16.128Z,96222.59
2023-03-26T21:28:43.529Z,96240.13
2023-03-26T21:31:09.926Z,96257.53
2023-03-26T21:33:36.309Z,96272.31
2023-03-26T21:36:02.835Z,96292.66
2023-03-26T21:38:29.265Z,96304.31
2023-03-26T21:40:58.884Z,96299.00
2023-03-26T21:43:25.464Z,96299.00
2023-03-26T21:45:51.891Z,96296.53
2023-03-26T21:48:18.360Z,96278.09
2023-03-26T21:50:44.787Z,96286.31
2023-03-26T21:53:11.644Z,96276.47
2023-03-26T21:55:38.059Z,96279.22
2023-03-26T21:58:04.442Z,96278.63
2023-03-26T22:00:42.778Z,96272.50
2023-03-26T22:03:10.326Z,96270.34
2023-03-26T22:05:36.783Z,96281.53
2023-03-26T22:08:03.206Z,96286.31
2023-03-26T22:10:29.583Z,96289.75
2023-03-26T22:12:55.977Z,96281.63
2023-03-26T22:15:22.366Z,96287.56
2023-03-26T22:17:48.798Z,96284.88
2023-03-26T22:20:15.238Z,96293.56
2023-03-26T22:22:41.609Z,96296.38
2023-03-26T22:25:08.225Z,96308.38
2023-03-26T22:27:34.626Z,96320.72
2023-03-26T22:30:10.558Z,96326.66
2023-03-26T22:32:37.017Z,96317.00
2023-03-26T22:35:03.418Z,96329.34
2023-03-26T22:37:29.794Z,96327.53
2023-03-26T22:39:56.281Z,96334.06
2023-03-26T22:42:27.550Z,96330.19
2023-03-26T22:44:53.908Z,96341.69
2023-03-26T22:47:20.542Z,96340.19
2023-03-26T22:50:07.133Z,96346.59
2023-03-26T22:52:33.519Z,96365.22
2023-03-26T22:54:59.917Z,96379.03
2023-03-26T22:57:26.334Z,96385.09
2023-03-26T22:59:52.751Z,96396.22
2023-03-26T23:02:19.157Z,96401.72
2023-03-26T23:04:45.623Z,96421.13
2023-03-26T23:07:12.017Z,96433.09
2023-03-26T23:09:38.378Z,96442.53
2023-03-26T23:12:04.747Z,96454.03
2023-03-26T23:14:31.213Z,96458.94
2023-03-26T23:16:57.617Z,96451.38
2023-03-26T23:19:23.983Z,96437.66
2023-03-26T23:22:02.715Z,96437.81
2023-03-26T23:24:29.337Z,96439.88
2023-03-26T23:26:55.789Z,96446.09
2023-03-26T23:29:22.199Z,96437.69
2023-03-26T23:31:48.584Z,96432.47
2023-03-26T23:34:14.971Z,96436.38
2023-03-26T23:36:41.330Z,96436.38
2023-03-26T23:39:07.633Z,96449.75
2023-03-26T23:41:34.005Z,96453.44
2023-03-26T23:44:03.481Z,96452.78
2023-03-26T23:46:29.928Z,96456.25
2023-03-26T23:48:56.352Z,96456.03
2023-03-26T23:51:22.787Z,96459.13
2023-03-26T23:53:49.413Z,96463.63
2023-03-26T23:56:16.076Z,96454.78
2023-03-26T23:58:42.494Z,96469.81
